createdAt,value
2022-08-08T00:00:53.016Z,62.62
2022-08-08T00:01:09.928Z,62.18
2022-08-08T00:02:31.274Z,62.18
2022-08-08T00:03:20.165Z,62.29
2022-08-08T00:04:09.812Z,62.29
2022-08-08T00:05:10.113Z,62.69
2022-08-08T00:06:08.724Z,62.49
2022-08-08T00:07:12.600Z,62.59
2022-08-08T00:08:08.708Z,62.38
2022-08-08T00:09:08.689Z,62.69
2022-08-08T00:10:10.735Z,62.38
2022-08-08T00:11:13.206Z,62.59
2022-08-08T00:12:10.670Z,62.79
2022-08-08T00:13:10.284Z,62.59
2022-08-08T00:14:17.572Z,62.59
2022-08-08T00:15:09.535Z,62.49
2022-08-08T00:16:08.511Z,62.49
2022-08-08T00:17:23.005Z,62.52
2022-08-08T00:18:09.493Z,62.89
2022-08-08T00:19:08.448Z,62.99
2022-08-08T00:20:08.427Z,62.69
2022-08-08T00:21:09.408Z,63.02
2022-08-08T00:22:10.581Z,62.99
2022-08-08T00:23:08.433Z,63.02
2022-08-08T00:24:08.343Z,63.23
2022-08-08T00:25:08.529Z,63.12
2022-08-08T00:26:08.301Z,63.02
2022-08-08T00:27:08.286Z,63.23
2022-08-08T00:28:34.546Z,63.12
2022-08-08T00:29:09.242Z,62.72
2022-08-08T00:30:11.240Z,63.15
2022-08-08T00:32:16.410Z,63.23
2022-08-08T00:32:20.809Z,63.53
2022-08-08T00:33:09.181Z,63.32
2022-08-08T00:34:18.659Z,62.92
2022-08-08T00:35:09.114Z,63.86
2022-08-08T00:36:09.784Z,63.76
2022-08-08T00:37:44.983Z,63.46
2022-08-08T00:38:31.640Z,63.59
2022-08-08T00:41:07.442Z,63.35
2022-08-08T00:41:12.220Z,63.76
2022-08-08T00:41:14.750Z,63.89
2022-08-08T00:42:13.337Z,63.56
2022-08-08T00:43:19.369Z,63.59
2022-08-08T00:44:08.937Z,64.37
2022-08-08T00:45:21.412Z,64.30
2022-08-08T00:46:16.552Z,64.61
2022-08-08T00:47:14.125Z,64.91
2022-08-08T00:48:29.120Z,64.91
2022-08-08T00:49:22.377Z,64.81
2022-08-08T00:50:09.241Z,65.01
2022-08-08T00:51:07.785Z,64.70
2022-08-08T00:52:07.767Z,64.30
2022-08-08T00:53:15.722Z,64.73
2022-08-08T00:54:15.757Z,65.11
2022-08-08T00:55:08.829Z,64.91
2022-08-08T00:56:11.252Z,64.73
2022-08-08T00:57:08.660Z,65.14
2022-08-08T00:58:12.402Z,65.04
2022-08-08T00:59:08.618Z,65.55
2022-08-08T01:00:07.600Z,65.92
2022-08-08T01:01:07.639Z,65.31
2022-08-08T01:03:16.171Z,65.21
2022-08-08T01:03:58.585Z,66.05
2022-08-08T01:04:08.945Z,65.04
2022-08-08T01:05:07.491Z,65.82
2022-08-08T01:06:07.926Z,66.16
2022-08-08T01:07:07.451Z,65.85
2022-08-08T01:08:07.453Z,65.04
2022-08-08T01:09:35.138Z,66.13
2022-08-08T01:10:08.385Z,65.42
2022-08-08T01:11:08.029Z,65.14
2022-08-08T01:12:07.344Z,65.31
2022-08-08T01:13:07.349Z,65.45
2022-08-08T01:14:08.544Z,65.24
2022-08-08T01:15:08.283Z,66.05
2022-08-08T01:16:07.261Z,66.36
2022-08-08T01:17:07.238Z,66.26
2022-08-08T01:18:07.245Z,65.34
2022-08-08T01:19:13.642Z,65.45
2022-08-08T01:20:08.175Z,65.45
2022-08-08T01:21:08.178Z,65.95
2022-08-08T01:22:13.559Z,65.68
2022-08-08T01:23:08.134Z,65.75
2022-08-08T01:24:13.818Z,65.75
2022-08-08T01:25:09.065Z,66.16
2022-08-08T01:26:11.399Z,66.46
2022-08-08T01:27:10.598Z,65.95
2022-08-08T01:28:07.027Z,66.16
2022-08-08T01:29:06.977Z,66.36
2022-08-08T01:30:06.957Z,66.26
2022-08-08T01:31:23.694Z,65.45
2022-08-08T01:32:17.153Z,66.16
2022-08-08T01:33:23.452Z,66.19
2022-08-08T01:34:07.871Z,65.68
2022-08-08T01:35:11.422Z,66.86
2022-08-08T01:36:07.833Z,65.65
2022-08-08T01:37:06.810Z,66.26
2022-08-08T01:38:07.818Z,65.45
2022-08-08T01:39:06.818Z,65.65
2022-08-08T01:40:06.780Z,66.90
2022-08-08T01:41:09.884Z,66.36
2022-08-08T01:42:08.232Z,66.56
2022-08-08T01:43:06.710Z,66.60
2022-08-08T01:44:06.662Z,66.69
2022-08-08T01:45:06.646Z,68.01
2022-08-08T01:46:07.619Z,67.81
2022-08-08T01:48:07.144Z,67.81
2022-08-08T01:48:16.918Z,67.27
2022-08-08T01:49:11.018Z,67.41
2022-08-08T01:50:07.853Z,67.50
2022-08-08T01:51:48.645Z,67.61
2022-08-08T01:53:04.226Z,67.71
2022-08-08T01:55:16.028Z,67.00
2022-08-08T01:55:25.755Z,66.80
2022-08-08T01:55:27.014Z,67.81
2022-08-08T01:56:28.839Z,67.41
2022-08-08T01:57:07.397Z,67.50
2022-08-08T01:58:11.886Z,67.41
2022-08-08T01:59:07.819Z,67.41
2022-08-08T02:00:06.799Z,67.03
2022-08-08T02:01:08.968Z,67.41
2022-08-08T02:02:08.294Z,67.24
2022-08-08T02:03:07.168Z,67.64
2022-08-08T02:04:06.273Z,67.33
2022-08-08T02:05:06.226Z,67.03
2022-08-08T02:06:06.205Z,67.74
2022-08-08T02:07:06.191Z,67.44
2022-08-08T02:08:06.884Z,67.64
2022-08-08T02:09:17.664Z,67.44
2022-08-08T02:10:11.658Z,67.74
2022-08-08T02:11:07.102Z,67.74
2022-08-08T02:12:07.081Z,67.64
2022-08-08T02:13:07.085Z,67.33
2022-08-08T02:14:06.041Z,67.57
2022-08-08T02:15:11.281Z,67.74
2022-08-08T02:16:07.003Z,67.47
2022-08-08T02:17:10.448Z,67.97
2022-08-08T02:18:10.501Z,68.59
2022-08-08T02:19:10.094Z,68.66
2022-08-08T02:20:09.500Z,68.79
2022-08-08T02:21:08.105Z,68.69
2022-08-08T02:22:05.873Z,67.88
2022-08-08T02:23:05.879Z,68.18
2022-08-08T02:24:05.833Z,68.28
2022-08-08T02:25:07.294Z,68.38
2022-08-08T02:26:06.788Z,68.38
2022-08-08T02:27:05.771Z,68.28
2022-08-08T02:28:05.774Z,68.66
2022-08-08T02:29:05.726Z,68.69
2022-08-08T02:30:05.702Z,68.79
2022-08-08T02:31:19.625Z,68.28
2022-08-08T02:32:06.665Z,68.66
2022-08-08T02:33:05.670Z,68.38
2022-08-08T02:34:09.109Z,67.97
2022-08-08T02:35:08.527Z,68.38
2022-08-08T02:36:06.586Z,68.25
2022-08-08T02:37:10.047Z,68.15
2022-08-08T02:38:09.070Z,68.28
2022-08-08T02:39:40.612Z,68.35
2022-08-08T02:40:06.590Z,67.94
2022-08-08T02:41:18.022Z,68.25
2022-08-08T02:42:07.961Z,67.84
2022-08-08T02:44:38.507Z,67.74
2022-08-08T02:44:43.051Z,68.15
2022-08-08T02:45:09.787Z,68.66
2022-08-08T02:46:08.105Z,68.49
2022-08-08T02:47:05.369Z,68.45
2022-08-08T02:48:05.382Z,68.38
2022-08-08T02:49:05.334Z,68.25
2022-08-08T02:50:05.314Z,68.49
2022-08-08T02:51:05.318Z,67.97
2022-08-08T02:52:32.401Z,68.59
2022-08-08T02:53:07.282Z,68.69
2022-08-08T02:54:05.228Z,68.59
2022-08-08T02:55:05.208Z,68.38
2022-08-08T02:56:06.186Z,68.59
2022-08-08T02:57:05.207Z,68.49
2022-08-08T02:58:06.177Z,68.59
2022-08-08T02:59:05.979Z,68.59
2022-08-08T03:00:26.622Z,68.79
2022-08-08T03:01:14.768Z,68.28
2022-08-08T03:02:06.116Z,68.79
2022-08-08T03:03:05.054Z,68.89
2022-08-08T03:05:05.089Z,68.38
2022-08-08T03:05:09.325Z,68.38
2022-08-08T03:06:07.275Z,68.32
2022-08-08T03:07:07.175Z,68.49
2022-08-08T03:08:04.986Z,68.79
2022-08-08T03:09:04.929Z,68.59
2022-08-08T03:10:04.908Z,68.38
2022-08-08T03:11:05.104Z,68.59
2022-08-08T03:12:05.983Z,68.79
2022-08-08T03:13:07.350Z,68.59
2022-08-08T03:15:59.703Z,68.82
2022-08-08T03:16:01.148Z,68.72
2022-08-08T03:16:06.519Z,68.92
2022-08-08T03:17:05.763Z,68.72
2022-08-08T03:18:06.862Z,69.02
2022-08-08T03:19:04.727Z,68.72
2022-08-08T03:20:04.701Z,68.72
2022-08-08T03:21:09.719Z,68.82
2022-08-08T03:22:05.666Z,68.41
2022-08-08T03:23:05.670Z,68.41
2022-08-08T03:24:04.625Z,68.21
2022-08-08T03:25:04.633Z,68.32
2022-08-08T03:26:05.580Z,68.32
2022-08-08T03:27:04.561Z,68.41
2022-08-08T03:28:04.544Z,68.21
2022-08-08T03:29:04.544Z,68.92
2022-08-08T03:30:05.502Z,68.41
2022-08-08T03:31:13.583Z,68.72
2022-08-08T03:32:08.411Z,68.32
2022-08-08T03:33:07.794Z,68.62
2022-08-08T03:34:06.424Z,68.72
2022-08-08T03:35:05.406Z,68.82
2022-08-08T03:36:04.386Z,68.72
2022-08-08T03:37:19.891Z,68.89
2022-08-08T03:38:56.269Z,68.72
2022-08-08T03:39:14.791Z,69.02
2022-08-08T03:40:05.373Z,68.92
2022-08-08T03:41:22.927Z,68.82
2022-08-08T03:42:26.542Z,69.13
2022-08-08T03:43:16.582Z,69.64
2022-08-08T03:44:05.227Z,69.20
2022-08-08T03:46:06.368Z,69.13
2022-08-08T03:46:09.177Z,69.20
2022-08-08T03:47:14.037Z,68.79
2022-08-08T03:48:05.175Z,69.53
2022-08-08T03:49:28.022Z,69.91
2022-08-08T03:50:05.112Z,69.23
2022-08-08T03:51:05.087Z,69.53
2022-08-08T03:52:04.203Z,69.60
2022-08-08T03:53:04.072Z,69.43
2022-08-08T03:54:04.027Z,69.84
2022-08-08T03:55:20.149Z,69.84
2022-08-08T03:56:04.985Z,70.04
2022-08-08T03:58:30.317Z,70.04
2022-08-08T03:58:31.631Z,70.14
2022-08-08T03:59:04.922Z,70.45
2022-08-08T04:00:11.350Z,70.25
2022-08-08T04:01:23.372Z,69.94
2022-08-08T04:02:22.882Z,69.74
2022-08-08T04:03:11.088Z,69.81
2022-08-08T04:04:04.876Z,69.40
2022-08-08T04:05:03.808Z,69.50
2022-08-08T04:06:05.789Z,68.96
2022-08-08T04:07:03.765Z,68.86
2022-08-08T04:08:03.774Z,68.22
2022-08-08T04:09:11.067Z,68.55
2022-08-08T04:10:05.712Z,68.22
2022-08-08T04:11:11.014Z,68.79
2022-08-08T04:12:04.665Z,67.14
2022-08-08T04:13:17.359Z,66.88
2022-08-08T04:14:34.024Z,66.54
2022-08-08T04:15:04.638Z,65.42
2022-08-08T04:16:05.719Z,64.04
2022-08-08T04:17:04.241Z,62.81
2022-08-08T04:18:03.543Z,62.57
2022-08-08T04:19:03.524Z,61.73
2022-08-08T04:20:04.648Z,60.39
2022-08-08T04:21:06.345Z,59.76
2022-08-08T04:22:03.460Z,59.53
2022-08-08T04:23:07.138Z,58.80
2022-08-08T04:24:11.560Z,58.80
2022-08-08T04:25:04.424Z,58.49
2022-08-08T04:26:09.077Z,58.19
2022-08-08T04:27:07.476Z,57.12
2022-08-08T04:28:35.782Z,56.87
2022-08-08T04:29:05.313Z,55.33
2022-08-08T04:30:17.908Z,55.21
2022-08-08T04:31:06.069Z,55.08
2022-08-08T04:32:03.250Z,53.75
2022-08-08T04:33:03.227Z,54.05
2022-08-08T04:34:03.234Z,52.74
2022-08-08T04:35:03.183Z,52.80
2022-08-08T04:36:03.164Z,52.07
2022-08-08T04:37:04.212Z,51.46
2022-08-08T04:38:03.124Z,51.44
2022-08-08T04:40:05.869Z,50.59
2022-08-08T04:40:10.728Z,50.57
2022-08-08T04:41:04.165Z,48.52
2022-08-08T04:42:03.051Z,48.32
2022-08-08T04:43:03.036Z,47.19
2022-08-08T04:44:03.036Z,47.67
2022-08-08T04:45:02.992Z,46.95
2022-08-08T04:46:02.972Z,47.47
2022-08-08T04:47:02.953Z,46.89
2022-08-08T04:48:02.938Z,47.37
2022-08-08T04:49:02.944Z,47.85
2022-08-08T04:50:05.033Z,46.97
2022-08-08T04:51:02.884Z,46.75
2022-08-08T04:52:04.143Z,45.51
2022-08-08T04:53:13.705Z,45.01
2022-08-08T04:54:40.170Z,45.03
2022-08-08T04:55:04.341Z,46.15
2022-08-08T04:56:02.787Z,47.30
2022-08-08T04:57:02.777Z,47.85
2022-08-08T04:58:02.752Z,47.10
2022-08-08T04:59:02.764Z,45.18
2022-08-08T05:00:02.715Z,45.47
2022-08-08T05:01:05.920Z,45.02
2022-08-08T05:02:03.734Z,43.75
2022-08-08T05:03:02.663Z,44.12
2022-08-08T05:04:11.480Z,44.68
2022-08-08T05:05:03.628Z,43.88
2022-08-08T05:06:12.556Z,43.65
2022-08-08T05:07:03.595Z,44.94
2022-08-08T05:08:02.752Z,44.32
2022-08-08T05:09:05.946Z,44.32
2022-08-08T05:10:02.546Z,44.53
2022-08-08T05:11:02.526Z,44.01
2022-08-08T05:12:02.513Z,43.65
2022-08-08T05:13:02.606Z,44.15
2022-08-08T05:14:02.508Z,44.10
2022-08-08T05:15:03.044Z,45.48
2022-08-08T05:16:52.889Z,44.94
2022-08-08T05:17:09.026Z,44.53
2022-08-08T05:18:03.406Z,43.82
2022-08-08T05:19:02.411Z,43.82
2022-08-08T05:20:12.537Z,45.30
2022-08-08T05:21:05.796Z,44.34
2022-08-08T05:22:02.334Z,44.79
2022-08-08T05:23:02.313Z,43.01
2022-08-08T05:24:02.326Z,41.82
2022-08-08T05:25:03.285Z,41.58
2022-08-08T05:26:02.268Z,41.47
2022-08-08T05:27:02.284Z,42.93
2022-08-08T05:28:02.240Z,43.01
2022-08-08T05:29:06.258Z,43.80
2022-08-08T05:30:02.195Z,43.38
2022-08-08T05:31:08.718Z,41.95
2022-08-08T05:32:06.195Z,42.23
2022-08-08T05:33:03.266Z,39.71
2022-08-08T05:34:02.153Z,40.19
2022-08-08T05:35:05.282Z,40.19
2022-08-08T05:36:02.088Z,39.85
2022-08-08T05:37:02.073Z,39.85
2022-08-08T05:38:03.060Z,38.92
2022-08-08T05:39:02.096Z,38.78
2022-08-08T05:40:02.026Z,37.58
2022-08-08T05:41:02.005Z,38.04
2022-08-08T05:42:01.995Z,38.23
2022-08-08T05:43:01.975Z,37.26
2022-08-08T05:44:03.635Z,37.84
2022-08-08T05:45:10.459Z,36.95
2022-08-08T05:46:04.133Z,36.85
2022-08-08T05:47:04.872Z,38.75
2022-08-08T05:48:08.934Z,38.86
2022-08-08T05:49:05.401Z,39.61
2022-08-08T05:50:02.860Z,40.15
2022-08-08T05:51:15.003Z,40.31
2022-08-08T05:52:02.821Z,39.59
2022-08-08T05:53:54.641Z,41.18
2022-08-08T05:54:42.566Z,40.15
2022-08-08T05:55:07.525Z,39.56
2022-08-08T05:56:07.802Z,38.37
2022-08-08T05:57:04.743Z,39.31
2022-08-08T05:58:04.842Z,39.28
2022-08-08T05:59:03.795Z,41.83
2022-08-08T06:00:22.558Z,42.93
2022-08-08T06:01:04.987Z,41.82
2022-08-08T06:02:01.658Z,42.75
2022-08-08T06:03:01.636Z,43.86
2022-08-08T06:04:04.903Z,42.93
2022-08-08T06:05:06.797Z,41.99
2022-08-08T06:06:05.081Z,41.75
2022-08-08T06:07:01.825Z,39.06
2022-08-08T06:08:02.312Z,41.66
2022-08-08T06:09:58.971Z,41.71
2022-08-08T06:10:02.639Z,41.66
2022-08-08T06:11:02.511Z,41.99
2022-08-08T06:12:01.494Z,42.01
2022-08-08T06:13:01.605Z,39.14
2022-08-08T06:14:01.492Z,39.91
2022-08-08T06:15:03.185Z,39.75
2022-08-08T06:16:01.430Z,40.64
2022-08-08T06:17:01.418Z,39.75
2022-08-08T06:18:20.249Z,39.97
2022-08-08T06:19:04.078Z,41.73
2022-08-08T06:20:01.366Z,39.71
2022-08-08T06:21:03.756Z,39.36
2022-08-08T06:22:32.255Z,38.88
2022-08-08T06:23:02.457Z,39.12
2022-08-08T06:24:03.464Z,37.41
2022-08-08T06:25:01.281Z,38.09
2022-08-08T06:26:44.765Z,37.34
2022-08-08T06:27:02.470Z,37.08
2022-08-08T06:28:01.233Z,36.08
2022-08-08T06:29:02.238Z,35.68
2022-08-08T06:30:02.226Z,37.51
2022-08-08T06:31:02.186Z,37.89
2022-08-08T06:32:09.772Z,37.10
2022-08-08T06:33:02.353Z,35.78
2022-08-08T06:34:26.281Z,36.85
2022-08-08T06:35:57.144Z,36.59
2022-08-08T06:36:08.418Z,36.52
2022-08-08T06:37:02.089Z,37.73
2022-08-08T06:38:02.085Z,38.05
2022-08-08T06:39:01.139Z,38.90
2022-08-08T06:40:02.097Z,37.00
2022-08-08T06:41:01.034Z,36.33
2022-08-08T06:42:02.616Z,37.13
2022-08-08T06:43:00.995Z,37.83
2022-08-08T06:44:01.008Z,37.40
2022-08-08T06:45:00.964Z,37.10
2022-08-08T06:46:00.948Z,37.28
2022-08-08T06:47:01.715Z,38.29
2022-08-08T06:48:04.192Z,37.71
2022-08-08T06:49:00.941Z,40.15
2022-08-08T06:50:00.890Z,37.28
2022-08-08T06:51:04.311Z,37.32
2022-08-08T06:52:02.858Z,38.40
2022-08-08T06:53:00.849Z,39.75
2022-08-08T06:54:01.854Z,38.78
2022-08-08T06:55:00.811Z,37.41
2022-08-08T06:56:02.938Z,37.08
2022-08-08T06:57:00.785Z,37.13
2022-08-08T06:58:04.113Z,34.76
2022-08-08T06:59:01.775Z,37.77
2022-08-08T07:00:11.404Z,38.39
2022-08-08T07:01:01.718Z,38.92
2022-08-08T07:02:26.531Z,36.82
2022-08-08T07:03:01.702Z,34.15
2022-08-08T07:04:35.460Z,36.18
2022-08-08T07:05:01.751Z,36.95
2022-08-08T07:06:01.634Z,36.04
2022-08-08T07:07:00.623Z,36.59
2022-08-08T07:08:01.642Z,36.97
2022-08-08T07:09:01.159Z,35.71
2022-08-08T07:10:00.976Z,34.67
2022-08-08T07:11:01.562Z,36.05
2022-08-08T07:12:00.545Z,36.19
2022-08-08T07:13:00.532Z,34.20
2022-08-08T07:14:01.717Z,34.75
2022-08-08T07:15:00.879Z,33.26
2022-08-08T07:16:07.093Z,35.15
2022-08-08T07:17:01.467Z,34.67
2022-08-08T07:18:01.610Z,34.13
2022-08-08T07:19:01.437Z,36.33
2022-08-08T07:20:00.456Z,35.78
2022-08-08T07:21:01.902Z,34.10
2022-08-08T07:22:05.150Z,33.29
2022-08-08T07:23:02.395Z,31.61
2022-08-08T07:24:03.361Z,34.64
2022-08-08T07:25:00.338Z,32.48
2022-08-08T07:26:00.323Z,31.32
2022-08-08T07:27:00.313Z,32.81
2022-08-08T07:28:02.589Z,33.89
2022-08-08T07:29:05.802Z,34.69
2022-08-08T07:30:06.950Z,32.90
2022-08-08T07:31:02.257Z,33.28
2022-08-08T07:32:00.231Z,33.20
2022-08-08T07:33:01.108Z,34.94
2022-08-08T07:34:00.232Z,34.76
2022-08-08T07:35:02.758Z,36.69
2022-08-08T07:36:00.172Z,36.31
2022-08-08T07:37:00.157Z,35.66
2022-08-08T07:38:10.221Z,36.34
2022-08-08T07:39:01.656Z,36.57
2022-08-08T07:40:01.849Z,35.12
2022-08-08T07:41:04.185Z,36.18
2022-08-08T07:42:04.233Z,35.52
2022-08-08T07:43:01.063Z,37.51
2022-08-08T07:44:00.102Z,37.77
2022-08-08T07:45:00.034Z,35.63
2022-08-08T07:46:17.918Z,36.00
2022-08-08T07:47:01.006Z,34.56
2022-08-08T07:47:59.992Z,34.84
2022-08-08T07:49:00.004Z,34.13
2022-08-08T07:49:59.961Z,35.24
2022-08-08T07:50:59.948Z,36.29
2022-08-08T07:51:59.931Z,36.02
2022-08-08T07:52:59.911Z,36.35
2022-08-08T07:54:02.864Z,33.65
2022-08-08T07:54:59.881Z,34.23
2022-08-08T07:55:59.869Z,32.74
2022-08-08T07:56:59.856Z,33.97
2022-08-08T07:57:59.837Z,34.18
2022-08-08T07:58:59.850Z,33.89
2022-08-08T07:59:59.810Z,33.72
2022-08-08T08:01:00.019Z,34.00
2022-08-08T08:02:35.490Z,34.13
2022-08-08T08:03:00.756Z,33.41
2022-08-08T08:03:59.829Z,33.07
2022-08-08T08:04:59.731Z,32.92
2022-08-08T08:05:59.714Z,35.93
2022-08-08T08:06:59.693Z,34.41
2022-08-08T08:07:59.684Z,34.28
2022-08-08T08:08:59.694Z,33.22
2022-08-08T08:09:59.651Z,34.81
2022-08-08T08:10:59.635Z,33.89
2022-08-08T08:11:59.625Z,34.70
2022-08-08T08:12:59.604Z,32.01
2022-08-08T08:14:08.110Z,33.05
2022-08-08T08:15:04.210Z,33.36
2022-08-08T08:15:59.558Z,33.44
2022-08-08T08:16:59.542Z,32.07
2022-08-08T08:17:59.530Z,31.61
2022-08-08T08:18:59.537Z,30.65
2022-08-08T08:19:59.501Z,31.63
2022-08-08T08:20:59.485Z,31.74
2022-08-08T08:22:00.766Z,33.43
2022-08-08T08:22:59.452Z,32.98
2022-08-08T08:24:02.885Z,34.06
2022-08-08T08:24:59.417Z,33.07
2022-08-08T08:26:00.402Z,33.86
2022-08-08T08:26:59.419Z,32.87
2022-08-08T08:27:59.368Z,32.00
2022-08-08T08:28:59.381Z,32.08
2022-08-08T08:29:59.336Z,31.66
2022-08-08T08:30:59.325Z,32.33
2022-08-08T08:32:05.728Z,31.74
2022-08-08T08:33:00.293Z,34.66
2022-08-08T08:33:59.306Z,30.94
2022-08-08T08:34:59.261Z,29.99
2022-08-08T08:36:19.150Z,31.33
2022-08-08T08:37:00.236Z,31.53
2022-08-08T08:38:15.702Z,31.92
2022-08-08T08:39:01.240Z,33.49
2022-08-08T08:40:02.859Z,32.68
2022-08-08T08:40:59.168Z,31.92
2022-08-08T08:41:59.152Z,31.87
2022-08-08T08:42:59.136Z,33.07
2022-08-08T08:44:13.488Z,32.95
2022-08-08T08:45:00.109Z,33.84
2022-08-08T08:46:03.433Z,33.41
2022-08-08T08:47:00.084Z,33.08
2022-08-08T08:48:01.033Z,33.74
2022-08-08T08:48:59.073Z,32.15
2022-08-08T08:49:59.028Z,31.70
2022-08-08T08:50:59.011Z,31.67
2022-08-08T08:51:58.994Z,32.52
2022-08-08T08:53:00.123Z,33.10
2022-08-08T08:54:00.826Z,33.67
2022-08-08T08:54:58.947Z,32.08
2022-08-08T08:56:01.327Z,34.64
2022-08-08T08:56:58.912Z,33.29
2022-08-08T08:57:58.904Z,33.29
2022-08-08T08:58:58.911Z,31.07
2022-08-08T09:00:04.640Z,33.23
2022-08-08T09:01:08.389Z,31.81
2022-08-08T09:02:00.891Z,33.75
2022-08-08T09:02:58.819Z,33.37
2022-08-08T09:03:58.831Z,34.05
2022-08-08T09:04:58.781Z,30.98
2022-08-08T09:05:58.766Z,31.85
2022-08-08T09:06:58.750Z,30.29
2022-08-08T09:08:12.730Z,31.09
2022-08-08T09:08:59.740Z,29.41
2022-08-08T09:09:58.700Z,31.32
2022-08-08T09:10:58.678Z,31.33
2022-08-08T09:12:01.457Z,32.31
2022-08-08T09:12:58.649Z,31.13
2022-08-08T09:13:58.654Z,31.53
2022-08-08T09:14:58.612Z,31.65
2022-08-08T09:16:03.737Z,35.60
2022-08-08T09:16:59.572Z,32.50
2022-08-08T09:17:58.805Z,32.28
2022-08-08T09:18:58.566Z,34.41
2022-08-08T09:21:56.138Z,30.27
2022-08-08T09:21:59.247Z,30.66
2022-08-08T09:22:06.257Z,33.41
2022-08-08T09:23:00.481Z,33.28
2022-08-08T09:23:58.482Z,29.30
2022-08-08T09:24:58.738Z,30.27
2022-08-08T09:26:02.255Z,29.00
2022-08-08T09:26:58.405Z,29.91
2022-08-08T09:27:58.671Z,32.40
2022-08-08T09:28:59.400Z,31.93
2022-08-08T09:29:58.356Z,32.22
2022-08-08T09:30:58.339Z,32.71
2022-08-08T09:31:58.328Z,34.08
2022-08-08T09:33:55.475Z,32.10
2022-08-08T09:34:31.012Z,31.91
2022-08-08T09:34:59.272Z,32.85
2022-08-08T09:35:58.256Z,33.03
2022-08-08T09:37:57.082Z,32.17
2022-08-08T09:38:02.102Z,34.50
2022-08-08T09:38:59.233Z,34.58
2022-08-08T09:39:58.204Z,34.50
2022-08-08T09:40:58.168Z,34.97
2022-08-08T09:42:21.332Z,33.47
2022-08-08T09:42:59.133Z,35.65
2022-08-08T09:44:04.977Z,34.48
2022-08-08T09:45:03.612Z,34.46
2022-08-08T09:46:02.981Z,36.11
2022-08-08T09:47:05.161Z,35.40
2022-08-08T09:48:04.332Z,33.62
2022-08-08T09:49:18.661Z,34.25
2022-08-08T09:50:01.469Z,33.89
2022-08-08T09:51:00.000Z,34.86
2022-08-08T09:52:06.861Z,33.37
2022-08-08T09:53:01.341Z,33.47
2022-08-08T09:54:09.304Z,34.86
2022-08-08T09:54:59.957Z,34.08
2022-08-08T09:56:05.776Z,33.17
2022-08-08T09:56:58.900Z,36.44
2022-08-08T09:57:57.903Z,33.54
2022-08-08T09:58:58.008Z,33.45
2022-08-08T10:00:59.826Z,33.98
2022-08-08T10:02:00.202Z,34.36
2022-08-08T10:02:58.792Z,32.88
2022-08-08T10:03:57.771Z,34.59
2022-08-08T10:04:57.806Z,34.30
2022-08-08T10:05:57.797Z,34.68
2022-08-08T10:06:57.719Z,35.69
2022-08-08T10:08:00.562Z,33.98
2022-08-08T10:08:57.682Z,33.47
2022-08-08T10:10:00.066Z,32.95
2022-08-08T10:10:57.734Z,33.80
2022-08-08T10:12:28.273Z,33.29
2022-08-08T10:13:00.510Z,33.20
2022-08-08T10:13:58.593Z,34.38
2022-08-08T10:14:57.602Z,33.72
2022-08-08T10:16:00.975Z,36.03
2022-08-08T10:16:58.406Z,34.92
2022-08-08T10:18:11.795Z,33.26
2022-08-08T10:18:59.505Z,34.94
2022-08-08T10:19:58.601Z,33.44
2022-08-08T10:21:00.583Z,36.51
2022-08-08T10:21:57.458Z,33.04
2022-08-08T10:22:57.436Z,34.63
2022-08-08T10:23:59.221Z,34.01
2022-08-08T10:24:57.426Z,34.03
2022-08-08T10:25:57.703Z,35.30
2022-08-08T10:26:59.782Z,34.15
2022-08-08T10:27:57.846Z,36.03
2022-08-08T10:28:57.332Z,36.41
2022-08-08T10:29:59.536Z,37.48
2022-08-08T10:31:01.029Z,33.42
2022-08-08T10:31:57.270Z,33.42
2022-08-08T10:32:57.262Z,33.42
2022-08-08T10:34:19.372Z,33.65
2022-08-08T10:35:01.483Z,33.29
2022-08-08T10:36:12.517Z,35.01
2022-08-08T10:36:59.735Z,36.11
2022-08-08T10:37:57.173Z,36.13
2022-08-08T10:38:57.151Z,35.54
2022-08-08T10:39:57.175Z,35.32
2022-08-08T10:40:57.117Z,36.58
2022-08-08T10:42:15.045Z,36.54
2022-08-08T10:42:58.081Z,34.27
2022-08-08T10:43:57.060Z,36.23
2022-08-08T10:44:57.070Z,36.31
2022-08-08T10:45:58.776Z,33.23
2022-08-08T10:46:58.010Z,36.27
2022-08-08T10:47:56.988Z,33.52
2022-08-08T10:48:59.136Z,33.45
2022-08-08T10:50:01.580Z,34.20
2022-08-08T10:50:56.935Z,34.20
2022-08-08T10:51:56.919Z,34.69
2022-08-08T10:52:56.902Z,36.18
2022-08-08T10:53:59.541Z,36.61
2022-08-08T10:54:56.894Z,38.09
2022-08-08T10:55:56.845Z,34.97
2022-08-08T10:56:56.827Z,36.76
2022-08-08T10:57:56.808Z,36.13
2022-08-08T10:58:56.787Z,37.00
2022-08-08T10:59:56.797Z,34.50
2022-08-08T11:01:05.029Z,35.64
2022-08-08T11:01:57.797Z,31.91
2022-08-08T11:02:56.716Z,34.33
2022-08-08T11:04:01.893Z,34.74
2022-08-08T11:04:58.710Z,34.36
2022-08-08T11:06:00.687Z,34.36
2022-08-08T11:06:56.647Z,34.06
2022-08-08T11:08:37.793Z,34.59
2022-08-08T11:08:57.615Z,34.84
2022-08-08T11:09:56.621Z,36.25
2022-08-08T11:10:56.578Z,35.94
2022-08-08T11:12:04.625Z,35.03
2022-08-08T11:13:18.653Z,35.39
2022-08-08T11:14:00.083Z,34.22
2022-08-08T11:14:56.532Z,34.40
2022-08-08T11:16:00.687Z,35.37
2022-08-08T11:16:57.466Z,37.83
2022-08-08T11:17:59.791Z,34.74
2022-08-08T11:18:57.435Z,33.13
2022-08-08T11:19:56.445Z,34.01
2022-08-08T11:20:57.513Z,33.52
2022-08-08T11:21:56.511Z,34.23
2022-08-08T11:22:57.367Z,33.16
2022-08-08T11:24:01.579Z,34.38
2022-08-08T11:24:57.358Z,34.58
2022-08-08T11:25:57.150Z,34.59
2022-08-08T11:26:57.383Z,34.61
2022-08-08T11:27:56.274Z,36.28
2022-08-08T11:28:56.261Z,37.35
2022-08-08T11:30:20.585Z,34.88
2022-08-08T11:30:57.224Z,33.98
2022-08-08T11:31:56.203Z,34.06
2022-08-08T11:32:56.186Z,33.56
2022-08-08T11:34:01.906Z,33.85
2022-08-08T11:35:24.983Z,34.05
2022-08-08T11:35:58.146Z,33.73
2022-08-08T11:36:58.722Z,34.05
2022-08-08T11:38:36.202Z,34.15
2022-08-08T11:38:57.124Z,33.47
2022-08-08T11:39:57.153Z,35.04
2022-08-08T11:40:56.053Z,33.26
2022-08-08T11:41:56.034Z,32.73
2022-08-08T11:42:56.017Z,33.31
2022-08-08T11:43:58.121Z,33.98
2022-08-08T11:44:56.008Z,32.42
2022-08-08T11:46:13.346Z,33.09
2022-08-08T11:46:57.944Z,32.68
2022-08-08T11:48:02.711Z,32.49
2022-08-08T11:48:56.915Z,31.29
2022-08-08T11:49:55.916Z,30.73
2022-08-08T11:50:55.875Z,33.33
2022-08-08T11:51:55.854Z,33.95
2022-08-08T11:52:55.841Z,33.94
2022-08-08T11:54:01.193Z,33.84
2022-08-08T11:54:56.829Z,34.71
2022-08-08T11:55:55.789Z,36.19
2022-08-08T11:56:56.003Z,35.28
2022-08-08T11:57:59.991Z,33.59
2022-08-08T11:58:57.730Z,36.16
2022-08-08T12:00:00.862Z,33.08
2022-08-08T12:00:56.700Z,33.37
2022-08-08T12:02:15.009Z,34.66
2022-08-08T12:02:57.765Z,30.91
2022-08-08T12:03:59.496Z,33.42
2022-08-08T12:04:56.653Z,36.51
2022-08-08T12:05:55.612Z,34.41
2022-08-08T12:06:55.591Z,35.19
2022-08-08T12:07:55.802Z,34.67
2022-08-08T12:08:55.553Z,34.18
2022-08-08T12:09:59.397Z,34.20
2022-08-08T12:10:56.531Z,34.00
2022-08-08T12:11:55.508Z,33.90
2022-08-08T12:12:56.035Z,35.27
2022-08-08T12:14:03.831Z,33.29
2022-08-08T12:14:56.739Z,35.55
2022-08-08T12:15:55.606Z,36.16
2022-08-08T12:16:55.408Z,34.08
2022-08-08T12:17:55.388Z,34.00
2022-08-08T12:18:55.373Z,33.62
2022-08-08T12:19:55.377Z,35.70
2022-08-08T12:20:55.364Z,36.37
2022-08-08T12:21:59.467Z,34.58
2022-08-08T12:22:57.036Z,34.28
2022-08-08T12:24:00.200Z,33.70
2022-08-08T12:24:56.691Z,33.82
2022-08-08T12:25:56.908Z,34.15
2022-08-08T12:26:56.972Z,34.76
2022-08-08T12:27:55.215Z,37.41
2022-08-08T12:28:55.196Z,34.74
2022-08-08T12:29:55.211Z,34.76
2022-08-08T12:30:55.160Z,33.97
2022-08-08T12:31:55.142Z,36.23
2022-08-08T12:32:55.126Z,34.34
2022-08-08T12:34:02.746Z,34.43
2022-08-08T12:35:01.288Z,33.84
2022-08-08T12:35:56.067Z,34.55
2022-08-08T12:36:55.056Z,34.38
2022-08-08T12:38:02.262Z,34.58
2022-08-08T12:38:56.015Z,34.46
2022-08-08T12:40:01.189Z,36.64
2022-08-08T12:40:59.236Z,36.13
2022-08-08T12:42:01.610Z,36.21
2022-08-08T12:42:55.949Z,37.08
2022-08-08T12:44:00.538Z,36.18
2022-08-08T12:44:55.938Z,35.37
2022-08-08T12:46:00.377Z,35.86
2022-08-08T12:47:01.001Z,34.58
2022-08-08T12:48:04.563Z,34.20
2022-08-08T12:49:21.926Z,34.51
2022-08-08T12:49:56.856Z,33.72
2022-08-08T12:50:57.577Z,33.23
2022-08-08T12:52:00.437Z,33.72
2022-08-08T12:52:55.909Z,34.25